createdAt,value
2022-11-26T00:02:31.673Z,99927.3
2022-11-26T00:08:08.208Z,99926.5
2022-11-26T00:13:43.586Z,99921
2022-11-26T00:19:18.566Z,99925.5
2022-11-26T00:24:53.787Z,99914.8
2022-11-26T00:30:30.295Z,99904.9
2022-11-26T00:36:05.428Z,99908.4
2022-11-26T00:41:50.024Z,99906.8
2022-11-26T00:47:25.444Z,99910.3
2022-11-26T00:53:00.160Z,99905.3
2022-11-26T00:58:35.486Z,99891.2
2022-11-26T01:04:13.222Z,99882.9
2022-11-26T01:09:48.114Z,99878.8
2022-11-26T01:15:24.796Z,99874.4
2022-11-26T01:21:00.934Z,99861.3
2022-11-26T01:26:36.309Z,99862.6
2022-11-26T01:32:11.788Z,99869.2
2022-11-26T01:37:47.127Z,99872
2022-11-26T01:43:22.404Z,99872
2022-11-26T01:49:02.086Z,99864.4
2022-11-26T01:54:38.532Z,99859.3
2022-11-26T02:00:15.440Z,99864.1
2022-11-26T02:05:51.659Z,99879.4
2022-11-26T02:11:26.809Z,99875.5
2022-11-26T02:17:01.842Z,99871.1
2022-11-26T02:22:36.701Z,99863.3
2022-11-26T02:28:12.276Z,99864.2
2022-11-26T02:33:50.813Z,99847.7
2022-11-26T02:39:34.439Z,99839.5
2022-11-26T02:45:12.376Z,99837.1
2022-11-26T02:50:48.586Z,99841.5
2022-11-26T02:56:23.565Z,99828.7
2022-11-26T03:02:04.454Z,99836.5
2022-11-26T03:07:40.262Z,99848
2022-11-26T03:13:16.232Z,99853.3
2022-11-26T03:18:51.324Z,99848.1
2022-11-26T03:24:48.692Z,99843.2
2022-11-26T03:30:23.839Z,99827.9
2022-11-26T03:35:59.914Z,99834.4
2022-11-26T03:41:35.443Z,99839.6
2022-11-26T03:47:14.758Z,99842.8
2022-11-26T03:53:31.555Z,99828.2
2022-11-26T03:59:09.383Z,99829.6
2022-11-26T04:04:53.033Z,99833.9
2022-11-26T04:10:57.890Z,99829.1
2022-11-26T04:16:46.999Z,99836.1
2022-11-26T04:22:31.678Z,99846.8
2022-11-26T04:28:09.076Z,99853.5
2022-11-26T04:33:52.717Z,99847.9
2022-11-26T04:39:33.544Z,99850.5
2022-11-26T04:45:13.848Z,99845.4
2022-11-26T04:50:52.537Z,99829.5
2022-11-26T04:56:28.415Z,99825
2022-11-26T05:02:03.246Z,99820.4
2022-11-26T05:07:38.712Z,99828.1
2022-11-26T05:13:21.808Z,99839.5
2022-11-26T05:19:05.518Z,99845.5
2022-11-26T05:24:43.347Z,99855.1
2022-11-26T05:30:27.895Z,99858.4
2022-11-26T05:36:16.556Z,99860.8
2022-11-26T05:42:10.137Z,99865.7
2022-11-26T05:47:51.770Z,99872.4
2022-11-26T05:53:27.056Z,99875.4
2022-11-26T05:59:02.150Z,99873.8
2022-11-26T06:04:46.076Z,99863.6
2022-11-26T06:10:21.861Z,99875.1
2022-11-26T06:15:57.074Z,99862.9
2022-11-26T06:21:32.564Z,99868.1
2022-11-26T06:27:15.935Z,99865.3
2022-11-26T06:32:53.598Z,99855
2022-11-26T06:38:28.350Z,99844.4
2022-11-26T06:44:07.470Z,99836.6
2022-11-26T06:49:42.223Z,99849.1
2022-11-26T06:55:17.343Z,99839.9
2022-11-26T07:00:54.368Z,99833.9
2022-11-26T07:06:42.039Z,99823.5
2022-11-26T07:12:18.046Z,99829.5
2022-11-26T07:17:53.035Z,99839.1
2022-11-26T07:23:29.106Z,99840.4
2022-11-26T07:29:49.128Z,99847.7
2022-11-26T07:35:33.082Z,99850.5
2022-11-26T07:41:08.061Z,99835.3
2022-11-26T07:46:47.036Z,99821.1
2022-11-26T07:52:52.075Z,99813.9
2022-11-26T07:58:30.882Z,99829.4
2022-11-26T08:04:07.500Z,99832
2022-11-26T08:09:51.987Z,99847
2022-11-26T08:15:27.231Z,99849.2
2022-11-26T08:21:03.324Z,99820.3
2022-11-26T08:26:59.265Z,99819.9
2022-11-26T08:32:34.516Z,99816.7
2022-11-26T08:38:15.658Z,99801.9
2022-11-26T08:44:11.883Z,99808.3
2022-11-26T08:49:56.460Z,99802.5
2022-11-26T08:56:00.933Z,99821.4
2022-11-26T09:01:37.324Z,99794.8
2022-11-26T09:07:13.434Z,99776.6
2022-11-26T09:13:24.395Z,99801.8
2022-11-26T09:18:59.836Z,99783.3
2022-11-26T09:24:35.120Z,99775.8
2022-11-26T09:30:19.110Z,99775.8
2022-11-26T09:35:58.194Z,99781.5
2022-11-26T09:41:33.185Z,99786.8
2022-11-26T09:47:14.510Z,99773.6
2022-11-26T09:53:07.671Z,99768.4
2022-11-26T09:58:53.065Z,99757.5
2022-11-26T10:04:30.820Z,99753.5
2022-11-26T10:10:06.024Z,99752.9
2022-11-26T10:15:41.057Z,99755.9
2022-11-26T10:21:58.427Z,99750.9
2022-11-26T10:27:36.817Z,99752.1
2022-11-26T10:33:12.826Z,99751
2022-11-26T10:38:48.392Z,99751.1
2022-11-26T10:44:23.896Z,99750.7
2022-11-26T10:50:49.972Z,99755.2
2022-11-26T10:56:26.389Z,99744.9
2022-11-26T11:02:01.888Z,99729
2022-11-26T11:07:41.069Z,99720.8
2022-11-26T11:13:17.427Z,99723.4
2022-11-26T11:18:52.832Z,99713.7
2022-11-26T11:24:28.335Z,99695.8
2022-11-26T11:30:03.755Z,99687
2022-11-26T11:35:40.400Z,99678
2022-11-26T11:41:15.251Z,99676.2
2022-11-26T11:46:51.326Z,99669
2022-11-26T11:52:27.263Z,99666.5
2022-11-26T11:58:44.350Z,99662.7
2022-11-26T12:04:24.774Z,99659
2022-11-26T12:10:06.856Z,99654.7
2022-11-26T12:16:34.108Z,99640.4
2022-11-26T12:22:14.123Z,99628.1
2022-11-26T12:27:51.660Z,99623
2022-11-26T12:33:27.303Z,99610.7
2022-11-26T12:39:03.382Z,99619.4
2022-11-26T12:44:39.454Z,99591.2
2022-11-26T12:50:16.716Z,99593
2022-11-26T12:55:51.853Z,99584.2
2022-11-26T13:01:27.419Z,99606.4
2022-11-26T13:07:03.043Z,99601.5
2022-11-26T13:12:37.660Z,99581.9
2022-11-26T13:18:19.944Z,99567.6
2022-11-26T13:23:54.869Z,99561.2
2022-11-26T13:29:30.358Z,99554.8
2022-11-26T13:35:06.333Z,99528.6
2022-11-26T13:40:59.372Z,99515.9
2022-11-26T13:46:56.689Z,99514.6
2022-11-26T13:52:29.824Z,99504.1
2022-11-26T13:58:05.091Z,99492.2
2022-11-26T14:03:42.939Z,99492.2
2022-11-26T14:09:20.586Z,99493.5
2022-11-26T14:14:56.068Z,99497.6
2022-11-26T14:20:34.469Z,99477.3
2022-11-26T14:26:09.503Z,99463.6
2022-11-26T14:31:46.408Z,99461.9
2022-11-26T14:37:26.376Z,99467
2022-11-26T14:43:13.681Z,99453.6
2022-11-26T14:48:48.366Z,99452.4
2022-11-26T14:54:26.732Z,99455.1
2022-11-26T15:00:01.739Z,99445.3
2022-11-26T15:05:46.015Z,99458.8
2022-11-26T15:11:22.222Z,99456.7
2022-11-26T15:17:19.627Z,99461.6
2022-11-26T15:22:55.821Z,99474.2
2022-11-26T15:28:30.940Z,99483.3
2022-11-26T15:34:14.806Z,99477.8
2022-11-26T15:40:11.831Z,99491.7
2022-11-26T15:45:57.104Z,99484.6
2022-11-26T15:51:40.522Z,99498.7
2022-11-26T15:57:23.875Z,99502.3
2022-11-26T16:03:00.590Z,99486.8
2022-11-26T16:08:37.240Z,99480.1
2022-11-26T16:14:13.028Z,99493.9
2022-11-26T16:19:52.071Z,99502.3
2022-11-26T16:25:27.149Z,99505.7
2022-11-26T16:31:03.274Z,99522.1
2022-11-26T16:36:43.581Z,99523.9
2022-11-26T16:42:22.649Z,99530.2
2022-11-26T16:48:13.303Z,99521.1
2022-11-26T16:53:48.905Z,99523.2
2022-11-26T16:59:24.552Z,99520.1
2022-11-26T17:05:02.149Z,99518.9
2022-11-26T17:10:40.766Z,99508.3
2022-11-26T17:16:16.247Z,99493.6
2022-11-26T17:21:59.191Z,99490.2
2022-11-26T17:27:40.325Z,99483.8
2022-11-26T17:33:17.750Z,99462.6
2022-11-26T17:39:00.006Z,99457.1
2022-11-26T17:44:36.016Z,99456.6
2022-11-26T17:50:11.452Z,99461.1
2022-11-26T17:55:46.447Z,99455.5
2022-11-26T18:01:21.788Z,99451.1
2022-11-26T18:06:57.175Z,99448.4
2022-11-26T18:12:31.840Z,99439.3
2022-11-26T18:18:24.628Z,99432.6
2022-11-26T18:24:04.285Z,99426.2
2022-11-26T18:29:50.079Z,99420.1
2022-11-26T18:35:32.019Z,99418.5
2022-11-26T18:41:11.330Z,99418.6
2022-11-26T18:46:46.307Z,99413.2
2022-11-26T18:52:22.609Z,99411.6
2022-11-26T18:58:21.592Z,99406
2022-11-26T19:03:59.312Z,99409.4
2022-11-26T19:09:38.996Z,99407.3
2022-11-26T19:15:16.327Z,99410.5
2022-11-26T19:20:55.538Z,99413.2
2022-11-26T19:26:30.454Z,99401.5
2022-11-26T19:32:06.943Z,99381.8
2022-11-26T19:37:42.380Z,99376.5
2022-11-26T19:43:17.415Z,99377
2022-11-26T19:48:53.423Z,99377
2022-11-26T19:55:09.989Z,99370
2022-11-26T20:01:14.723Z,99364.6
2022-11-26T20:07:38.661Z,99361.3
2022-11-26T20:13:15.124Z,99357.6
2022-11-26T20:18:51.993Z,99355.1
2022-11-26T20:24:35.560Z,99356
2022-11-26T20:30:48.195Z,99353.5
2022-11-26T20:36:24.119Z,99347.9
2022-11-26T20:41:59.317Z,99344.8
2022-11-26T20:47:43.112Z,99341
2022-11-26T20:53:31.246Z,99342.9
2022-11-26T20:59:10.543Z,99345.3
2022-11-26T21:04:52.243Z,99338.3
2022-11-26T21:10:40.045Z,99344.4
2022-11-26T21:16:18.115Z,99345.8
2022-11-26T21:22:07.531Z,99351.8
2022-11-26T21:27:58.276Z,99350.8
2022-11-26T21:33:33.675Z,99355.5
2022-11-26T21:39:08.837Z,99352
2022-11-26T21:44:44.027Z,99342.9
2022-11-26T21:50:20.375Z,99351.2
2022-11-26T21:55:58.970Z,99353
2022-11-26T22:01:42.953Z,99350.3
2022-11-26T22:07:19.923Z,99353.8
2022-11-26T22:12:58.385Z,99358.5
2022-11-26T22:18:34.673Z,99365
2022-11-26T22:24:20.098Z,99365.3
2022-11-26T22:30:18.371Z,99371.5
2022-11-26T22:36:21.886Z,99374.2
2022-11-26T22:41:57.322Z,99374.4
2022-11-26T22:48:02.979Z,99378.1
2022-11-26T22:53:37.017Z,99379.2
2022-11-26T22:59:18.992Z,99377.9
2022-11-26T23:05:00.140Z,99377.8
2022-11-26T23:10:35.380Z,99384.3
2022-11-26T23:16:12.221Z,99388.1
2022-11-26T23:21:48.926Z,99378.1
2022-11-26T23:27:24.235Z,99382
2022-11-26T23:33:18.211Z,99385.5
2022-11-26T23:38:54.299Z,99378.2
2022-11-26T23:44:30.404Z,99381
2022-11-26T23:50:05.557Z,99379.1
2022-11-26T23:55:45.615Z,99373.3
